createdAt,value
2023-04-23T00:00:07.697Z,214.29
2023-04-23T00:01:07.708Z,214.50
2023-04-23T00:02:07.755Z,211.28
2023-04-23T00:03:07.840Z,212.92
2023-04-23T00:04:07.971Z,215.22
2023-04-23T00:05:07.822Z,216.37
2023-04-23T00:06:07.771Z,216.42
2023-04-23T00:07:07.733Z,215.42
2023-04-23T00:08:07.722Z,214.53
2023-04-23T00:09:07.752Z,211.77
2023-04-23T00:10:07.785Z,210.64
2023-04-23T00:11:07.798Z,212.82
2023-04-23T00:12:07.827Z,212.47
2023-04-23T00:13:07.835Z,209.27
2023-04-23T00:14:07.840Z,209.83
2023-04-23T00:15:07.880Z,211.00
2023-04-23T00:16:07.916Z,211.01
2023-04-23T00:17:07.940Z,211.30
2023-04-23T00:18:07.976Z,211.96
2023-04-23T00:19:07.963Z,212.96
2023-04-23T00:20:07.971Z,213.16
2023-04-23T00:21:07.990Z,213.59
2023-04-23T00:22:08.013Z,213.98
2023-04-23T00:23:08.037Z,212.37
2023-04-23T00:24:08.063Z,214.40
2023-04-23T00:25:08.091Z,214.95
2023-04-23T00:26:08.139Z,214.94
2023-04-23T00:27:08.162Z,215.48
2023-04-23T00:28:08.172Z,215.54
2023-04-23T00:29:08.123Z,215.71
2023-04-23T00:30:08.097Z,216.04
2023-04-23T00:31:08.078Z,217.18
2023-04-23T00:32:08.154Z,217.27
2023-04-23T00:33:08.006Z,217.39
2023-04-23T00:34:07.976Z,217.08
2023-04-23T00:35:07.935Z,217.49
2023-04-23T00:36:07.890Z,219.39
2023-04-23T00:37:07.890Z,218.90
2023-04-23T00:38:07.841Z,219.74
2023-04-23T00:39:07.811Z,220.34
2023-04-23T00:40:07.774Z,218.24
2023-04-23T00:41:07.753Z,220.66
2023-04-23T00:42:07.720Z,220.73
2023-04-23T00:43:07.696Z,220.88
2023-04-23T00:44:07.653Z,220.92
2023-04-23T00:45:07.635Z,221.95
2023-04-23T00:46:07.705Z,219.85
2023-04-23T00:47:07.576Z,221.61
2023-04-23T00:48:07.558Z,219.05
2023-04-23T00:49:07.541Z,218.84
2023-04-23T00:50:07.486Z,220.33
2023-04-23T00:51:07.478Z,220.53
2023-04-23T00:52:07.431Z,220.84
2023-04-23T00:53:07.396Z,222.70
2023-04-23T00:54:07.372Z,222.75
2023-04-23T00:55:07.363Z,222.73
2023-04-23T00:56:07.321Z,223.03
2023-04-23T00:57:07.309Z,221.27
2023-04-23T00:58:07.270Z,222.99
2023-04-23T00:59:07.239Z,222.48
2023-04-23T01:00:07.205Z,223.83
2023-04-23T01:01:07.221Z,223.58
2023-04-23T01:02:07.206Z,223.94
2023-04-23T01:03:07.248Z,223.52
2023-04-23T01:04:07.279Z,225.23
2023-04-23T01:05:07.071Z,225.50
2023-04-23T01:06:07.038Z,225.00
2023-04-23T01:07:07.007Z,224.17
2023-04-23T01:08:06.975Z,223.28
2023-04-23T01:09:06.942Z,223.67
2023-04-23T01:10:06.908Z,224.24
2023-04-23T01:11:06.875Z,224.77
2023-04-23T01:12:06.875Z,224.93
2023-04-23T01:13:06.819Z,224.66
2023-04-23T01:14:06.783Z,224.56
2023-04-23T01:15:06.753Z,225.75
2023-04-23T01:16:06.754Z,225.39
2023-04-23T01:17:06.827Z,225.60
2023-04-23T01:18:06.691Z,225.25
2023-04-23T01:19:06.689Z,226.43
2023-04-23T01:20:06.805Z,226.58
2023-04-23T01:21:06.679Z,226.52
2023-04-23T01:22:06.650Z,226.63
2023-04-23T01:23:06.633Z,226.88
2023-04-23T01:24:06.597Z,226.96
2023-04-23T01:25:06.573Z,227.62
2023-04-23T01:26:06.551Z,226.41
2023-04-23T01:27:06.523Z,225.91
2023-04-23T01:28:06.499Z,226.18
2023-04-23T01:29:06.465Z,227.51
2023-04-23T01:30:06.439Z,227.69
2023-04-23T01:31:06.442Z,225.71
2023-04-23T01:32:06.397Z,226.33
2023-04-23T01:33:06.369Z,226.57
2023-04-23T01:34:06.343Z,227.65
2023-04-23T01:35:06.319Z,225.95
2023-04-23T01:36:06.301Z,227.30
2023-04-23T01:37:06.270Z,228.08
2023-04-23T01:38:06.239Z,228.88
2023-04-23T01:39:06.220Z,228.15
2023-04-23T01:40:06.215Z,227.98
2023-04-23T01:41:06.222Z,228.55
2023-04-23T01:42:06.249Z,227.30
2023-04-23T01:43:06.262Z,227.63
2023-04-23T01:44:06.232Z,228.08
2023-04-23T01:45:06.214Z,227.24
2023-04-23T01:46:06.228Z,227.36
2023-04-23T01:47:07.171Z,227.45
2023-04-23T01:48:06.207Z,227.60
2023-04-23T01:49:06.178Z,228.25
2023-04-23T01:50:06.150Z,227.89
2023-04-23T01:51:06.148Z,227.71
2023-04-23T01:52:06.123Z,229.28
2023-04-23T01:53:06.126Z,227.63
2023-04-23T01:54:06.070Z,227.66
2023-04-23T01:55:06.065Z,228.21
2023-04-23T01:56:06.029Z,228.75
2023-04-23T01:57:06.000Z,228.10
2023-04-23T01:58:05.966Z,227.94
2023-04-23T01:59:05.940Z,228.44
2023-04-23T02:00:05.934Z,228.33
2023-04-23T02:01:05.921Z,229.03
2023-04-23T02:02:06.076Z,227.96
2023-04-23T02:03:06.299Z,229.03
2023-04-23T02:04:05.888Z,228.39
2023-04-23T02:05:05.841Z,228.92
2023-04-23T02:06:05.841Z,228.87
2023-04-23T02:07:05.833Z,231.09
2023-04-23T02:08:05.850Z,229.98
2023-04-23T02:09:05.868Z,230.68
2023-04-23T02:10:05.838Z,230.85
2023-04-23T02:11:05.813Z,229.92
2023-04-23T02:12:05.779Z,230.43
2023-04-23T02:13:05.782Z,231.68
2023-04-23T02:14:05.829Z,231.44
2023-04-23T02:15:05.796Z,231.30
2023-04-23T02:16:05.814Z,230.83
2023-04-23T02:17:05.761Z,230.92
2023-04-23T02:18:05.710Z,231.15
2023-04-23T02:19:05.658Z,231.86
2023-04-23T02:20:05.634Z,232.20
2023-04-23T02:21:05.585Z,231.70
2023-04-23T02:22:05.552Z,231.97
2023-04-23T02:23:05.540Z,232.91
2023-04-23T02:24:05.490Z,232.11
2023-04-23T02:25:05.457Z,232.96
2023-04-23T02:26:05.428Z,232.55
2023-04-23T02:27:05.395Z,232.08
2023-04-23T02:28:05.376Z,232.06
2023-04-23T02:29:05.361Z,232.04
2023-04-23T02:30:05.308Z,231.99
2023-04-23T02:31:05.337Z,231.14
2023-04-23T02:32:05.274Z,230.69
2023-04-23T02:33:05.247Z,228.70
2023-04-23T02:34:05.198Z,229.89
2023-04-23T02:35:05.180Z,228.26
2023-04-23T02:36:05.157Z,230.74
2023-04-23T02:37:05.114Z,230.13
2023-04-23T02:38:05.089Z,231.28
2023-04-23T02:39:05.062Z,230.54
2023-04-23T02:40:05.034Z,230.47
2023-04-23T02:41:05.005Z,230.95
2023-04-23T02:42:04.970Z,231.67
2023-04-23T02:43:04.954Z,231.11
2023-04-23T02:44:04.943Z,231.88
2023-04-23T02:45:04.886Z,229.70
2023-04-23T02:46:04.861Z,229.91
2023-04-23T02:47:04.907Z,230.27
2023-04-23T02:48:04.910Z,230.12
2023-04-23T02:49:04.779Z,229.34
2023-04-23T02:50:04.720Z,228.46
2023-04-23T02:51:04.708Z,229.18
2023-04-23T02:52:04.677Z,230.10
2023-04-23T02:53:04.644Z,229.49
2023-04-23T02:54:04.607Z,229.11
2023-04-23T02:55:04.575Z,229.03
2023-04-23T02:56:04.534Z,228.69
2023-04-23T02:57:04.500Z,229.94
2023-04-23T02:58:04.467Z,229.70
2023-04-23T02:59:04.447Z,229.67
2023-04-23T03:00:04.499Z,229.06
2023-04-23T03:01:04.622Z,229.50
2023-04-23T03:02:04.732Z,229.92
2023-04-23T03:03:04.817Z,229.47
2023-04-23T03:04:04.805Z,229.30
2023-04-23T03:05:04.646Z,227.12
2023-04-23T03:06:04.661Z,226.93
2023-04-23T03:07:04.652Z,228.16
2023-04-23T03:08:04.619Z,228.97
2023-04-23T03:09:04.580Z,227.84
2023-04-23T03:10:04.551Z,229.78
2023-04-23T03:11:06.052Z,225.60
2023-04-23T03:12:04.504Z,224.51
2023-04-23T03:13:04.490Z,227.23
2023-04-23T03:14:04.456Z,226.97
2023-04-23T03:15:04.441Z,227.45
2023-04-23T03:16:04.415Z,224.62
2023-04-23T03:17:04.413Z,223.98
2023-04-23T03:18:04.470Z,224.27
2023-04-23T03:19:04.360Z,225.66
2023-04-23T03:20:04.311Z,224.97
2023-04-23T03:21:04.310Z,224.99
2023-04-23T03:22:04.284Z,224.08
2023-04-23T03:23:04.254Z,225.53
2023-04-23T03:24:04.217Z,225.84
2023-04-23T03:25:04.193Z,225.77
2023-04-23T03:26:04.164Z,225.97
2023-04-23T03:27:04.228Z,225.76
2023-04-23T03:28:04.285Z,225.38
2023-04-23T03:29:04.248Z,226.39
2023-04-23T03:30:04.225Z,225.95
2023-04-23T03:31:04.248Z,225.47
2023-04-23T03:32:04.174Z,225.86
2023-04-23T03:33:04.250Z,226.08
2023-04-23T03:34:04.211Z,226.08
2023-04-23T03:35:04.164Z,225.51
2023-04-23T03:36:04.138Z,225.96
2023-04-23T03:37:04.112Z,226.19
2023-04-23T03:38:04.076Z,226.36
2023-04-23T03:39:04.048Z,225.38
2023-04-23T03:40:04.005Z,221.32
2023-04-23T03:41:03.974Z,220.87
2023-04-23T03:42:03.943Z,222.59
2023-04-23T03:43:03.953Z,222.73
2023-04-23T03:44:03.890Z,224.01
2023-04-23T03:45:03.865Z,223.91
2023-04-23T03:46:03.896Z,223.91
2023-04-23T03:47:03.822Z,224.23
2023-04-23T03:48:03.814Z,222.33
2023-04-23T03:49:03.762Z,220.82
2023-04-23T03:50:03.733Z,222.03
2023-04-23T03:51:03.711Z,221.17
2023-04-23T03:52:03.672Z,220.91
2023-04-23T03:53:03.665Z,220.96
2023-04-23T03:54:03.619Z,221.05
2023-04-23T03:55:03.601Z,219.83
2023-04-23T03:56:03.559Z,217.69
2023-04-23T03:57:03.543Z,219.54
2023-04-23T03:58:03.538Z,218.54
2023-04-23T03:59:03.488Z,217.59
2023-04-23T04:00:03.458Z,220.18
2023-04-23T04:01:03.430Z,221.17
2023-04-23T04:02:03.397Z,221.76
2023-04-23T04:03:03.452Z,221.58
2023-04-23T04:04:03.518Z,220.03
2023-04-23T04:05:03.519Z,221.55
2023-04-23T04:06:03.271Z,219.56
2023-04-23T04:07:03.244Z,218.94
2023-04-23T04:08:03.207Z,221.12
2023-04-23T04:09:03.166Z,222.40
2023-04-23T04:10:03.136Z,222.00
2023-04-23T04:11:03.113Z,221.50
2023-04-23T04:12:03.071Z,220.94
2023-04-23T04:13:03.063Z,221.25
2023-04-23T04:14:03.008Z,221.43
2023-04-23T04:15:02.985Z,220.94
2023-04-23T04:16:02.980Z,220.93
2023-04-23T04:17:02.916Z,221.05
2023-04-23T04:18:02.891Z,221.04
2023-04-23T04:19:02.855Z,220.52
2023-04-23T04:20:02.846Z,220.69
2023-04-23T04:21:02.824Z,221.38
2023-04-23T04:22:02.793Z,220.42
2023-04-23T04:23:02.800Z,220.49
2023-04-23T04:24:02.759Z,221.03
2023-04-23T04:25:02.801Z,220.48
2023-04-23T04:26:02.781Z,220.60
2023-04-23T04:27:02.763Z,220.95
2023-04-23T04:28:02.743Z,219.69
2023-04-23T04:29:02.714Z,220.27
2023-04-23T04:30:02.690Z,220.56
2023-04-23T04:31:02.813Z,220.53
2023-04-23T04:32:02.832Z,221.07
2023-04-23T04:33:02.903Z,221.36
2023-04-23T04:34:02.974Z,220.94
2023-04-23T04:35:03.051Z,221.99
2023-04-23T04:36:03.044Z,221.26
2023-04-23T04:37:03.026Z,221.44
2023-04-23T04:38:03.011Z,222.29
2023-04-23T04:39:02.984Z,221.25
2023-04-23T04:40:02.976Z,220.79
2023-04-23T04:41:03.024Z,221.96
2023-04-23T04:42:03.105Z,220.42
2023-04-23T04:43:03.083Z,220.66
2023-04-23T04:44:03.060Z,219.98
2023-04-23T04:45:03.041Z,221.13
2023-04-23T04:46:04.147Z,221.46
2023-04-23T04:47:03.045Z,220.25
2023-04-23T04:48:02.983Z,220.89
2023-04-23T04:49:03.042Z,220.35
2023-04-23T04:50:03.072Z,218.28
2023-04-23T04:51:03.052Z,217.40
2023-04-23T04:52:03.035Z,216.58
2023-04-23T04:53:03.020Z,217.33
2023-04-23T04:54:02.985Z,217.40
2023-04-23T04:55:03.062Z,217.30
2023-04-23T04:56:03.127Z,215.56
2023-04-23T04:57:03.212Z,215.57
2023-04-23T04:58:03.302Z,214.35
2023-04-23T04:59:03.348Z,211.75
2023-04-23T05:00:03.430Z,212.73
2023-04-23T05:01:03.510Z,212.48
2023-04-23T05:02:03.608Z,214.78
2023-04-23T05:03:03.747Z,216.05
2023-04-23T05:04:03.822Z,216.89
2023-04-23T05:05:03.598Z,216.14
2023-04-23T05:06:03.665Z,216.87
2023-04-23T05:07:03.650Z,216.93
2023-04-23T05:08:03.654Z,217.60
2023-04-23T05:09:03.614Z,217.85
2023-04-23T05:10:03.589Z,216.15
2023-04-23T05:11:03.644Z,217.75
2023-04-23T05:12:03.616Z,217.35
2023-04-23T05:13:03.596Z,215.50
2023-04-23T05:14:03.563Z,214.44
2023-04-23T05:15:03.554Z,214.65
2023-04-23T05:16:03.518Z,215.28
2023-04-23T05:17:03.592Z,215.43
2023-04-23T05:18:03.594Z,214.73
2023-04-23T05:19:03.557Z,216.04
2023-04-23T05:20:03.525Z,215.27
2023-04-23T05:21:03.504Z,216.47
2023-04-23T05:22:03.502Z,215.96
2023-04-23T05:23:03.559Z,215.19
2023-04-23T05:24:03.678Z,216.10
2023-04-23T05:25:03.718Z,215.17
2023-04-23T05:26:03.801Z,214.69
2023-04-23T05:27:03.859Z,216.27
2023-04-23T05:28:03.849Z,216.56
2023-04-23T05:29:03.831Z,214.80
2023-04-23T05:30:03.813Z,214.85
2023-04-23T05:31:03.784Z,214.01
2023-04-23T05:32:03.786Z,215.96
2023-04-23T05:33:03.884Z,216.21
2023-04-23T05:34:03.924Z,215.91
2023-04-23T05:35:03.926Z,214.58
2023-04-23T05:36:03.911Z,214.28
2023-04-23T05:37:03.857Z,214.02
2023-04-23T05:38:03.834Z,213.53
2023-04-23T05:39:03.820Z,214.46
2023-04-23T05:40:03.883Z,213.69
2023-04-23T05:41:03.973Z,215.02
2023-04-23T05:42:04.046Z,214.78
2023-04-23T05:43:04.107Z,215.45
2023-04-23T05:44:04.193Z,212.74
2023-04-23T05:45:04.824Z,214.13
2023-04-23T05:46:04.290Z,215.36
2023-04-23T05:47:04.218Z,214.98
2023-04-23T05:48:04.240Z,213.48
2023-04-23T05:49:04.195Z,212.59
2023-04-23T05:50:04.150Z,212.61
2023-04-23T05:51:04.125Z,209.50
2023-04-23T05:52:04.098Z,210.14
2023-04-23T05:53:04.079Z,212.60
2023-04-23T05:54:04.048Z,212.91
2023-04-23T05:55:04.018Z,213.30
2023-04-23T05:56:04.008Z,212.70
2023-04-23T05:57:03.960Z,211.86
2023-04-23T05:58:03.956Z,212.85
2023-04-23T05:59:03.916Z,212.16
2023-04-23T06:00:03.910Z,213.15
2023-04-23T06:01:03.856Z,210.77
2023-04-23T06:02:03.922Z,211.79
2023-04-23T06:03:03.970Z,210.71
2023-04-23T06:04:04.081Z,209.92
2023-04-23T06:05:03.922Z,209.83
2023-04-23T06:06:03.792Z,207.60
2023-04-23T06:07:03.703Z,209.69
2023-04-23T06:08:03.687Z,209.37
2023-04-23T06:09:03.651Z,209.00
2023-04-23T06:10:03.624Z,209.62
2023-04-23T06:11:03.607Z,209.75
2023-04-23T06:12:03.684Z,209.62
2023-04-23T06:13:03.712Z,210.67
2023-04-23T06:14:03.668Z,210.49
2023-04-23T06:15:03.638Z,210.06
2023-04-23T06:16:03.647Z,209.36
2023-04-23T06:17:03.601Z,211.83
2023-04-23T06:18:03.724Z,210.96
2023-04-23T06:19:03.746Z,210.79
2023-04-23T06:20:03.772Z,210.06
2023-04-23T06:21:03.761Z,210.84
2023-04-23T06:22:03.745Z,211.30
2023-04-23T06:23:03.726Z,210.06
2023-04-23T06:24:03.700Z,211.40
2023-04-23T06:25:03.774Z,210.62
2023-04-23T06:26:03.739Z,211.30
2023-04-23T06:27:03.724Z,211.48
2023-04-23T06:28:03.688Z,210.68
2023-04-23T06:29:03.659Z,210.32
2023-04-23T06:30:03.643Z,211.04
2023-04-23T06:31:03.656Z,210.81
2023-04-23T06:32:03.627Z,211.55
2023-04-23T06:33:03.742Z,210.97
2023-04-23T06:34:03.606Z,211.00
2023-04-23T06:35:03.804Z,210.53
2023-04-23T06:36:03.517Z,211.17
2023-04-23T06:37:03.483Z,210.44
2023-04-23T06:38:03.466Z,210.94
2023-04-23T06:39:03.438Z,210.12
2023-04-23T06:40:03.407Z,211.51
2023-04-23T06:41:03.368Z,211.00
2023-04-23T06:42:03.332Z,210.54
2023-04-23T06:43:03.308Z,210.06
2023-04-23T06:44:03.285Z,210.02
2023-04-23T06:45:05.340Z,209.79
2023-04-23T06:46:03.209Z,209.90
2023-04-23T06:47:03.448Z,209.95
2023-04-23T06:48:03.184Z,210.24
2023-04-23T06:49:03.119Z,209.81
2023-04-23T06:50:03.092Z,211.31
2023-04-23T06:51:03.080Z,211.09
2023-04-23T06:52:03.022Z,210.45
2023-04-23T06:53:03.016Z,209.10
2023-04-23T06:54:02.980Z,209.29
2023-04-23T06:55:02.948Z,209.54
2023-04-23T06:56:02.917Z,208.67
2023-04-23T06:57:02.884Z,210.36
2023-04-23T06:58:02.861Z,209.96
2023-04-23T06:59:02.841Z,210.34
2023-04-23T07:00:02.815Z,209.09
2023-04-23T07:01:02.835Z,208.90
2023-04-23T07:02:02.748Z,209.26
2023-04-23T07:03:02.893Z,210.07
2023-04-23T07:04:02.745Z,210.30
2023-04-23T07:05:02.712Z,210.32
2023-04-23T07:06:02.634Z,209.70
2023-04-23T07:07:02.725Z,209.94
2023-04-23T07:08:02.563Z,209.51
2023-04-23T07:09:02.532Z,209.48
2023-04-23T07:10:02.492Z,209.84
2023-04-23T07:11:02.446Z,210.38
2023-04-23T07:12:02.427Z,210.25
2023-04-23T07:13:02.379Z,209.07
2023-04-23T07:14:02.349Z,208.73
2023-04-23T07:15:02.377Z,209.24
2023-04-23T07:16:02.290Z,210.50
2023-04-23T07:17:02.381Z,208.49
2023-04-23T07:18:02.247Z,208.53
2023-04-23T07:19:02.207Z,207.94
2023-04-23T07:20:02.159Z,207.34
2023-04-23T07:21:02.123Z,208.09
2023-04-23T07:22:02.097Z,207.25
2023-04-23T07:23:02.064Z,207.47
2023-04-23T07:24:02.033Z,205.68
2023-04-23T07:25:02.012Z,207.22
2023-04-23T07:26:01.960Z,206.00
2023-04-23T07:27:02.042Z,206.58
2023-04-23T07:28:01.997Z,205.57
2023-04-23T07:29:01.975Z,206.21
2023-04-23T07:30:01.953Z,205.41
2023-04-23T07:31:01.920Z,205.22
2023-04-23T07:32:01.929Z,205.84
2023-04-23T07:33:01.976Z,205.73
2023-04-23T07:34:01.859Z,205.20
2023-04-23T07:35:01.829Z,207.09
2023-04-23T07:36:01.829Z,204.44
2023-04-23T07:37:01.887Z,204.64
2023-04-23T07:38:01.904Z,203.05
2023-04-23T07:39:01.938Z,203.54
2023-04-23T07:40:01.837Z,202.01
2023-04-23T07:41:01.804Z,203.72
2023-04-23T07:42:01.775Z,202.00
2023-04-23T07:43:01.773Z,200.86
2023-04-23T07:44:01.750Z,201.61
2023-04-23T07:45:01.713Z,201.61
2023-04-23T07:46:01.854Z,200.78
2023-04-23T07:47:01.670Z,201.51
2023-04-23T07:48:01.683Z,201.39
2023-04-23T07:49:01.635Z,200.86
2023-04-23T07:50:01.633Z,202.42
2023-04-23T07:51:01.605Z,202.38
2023-04-23T07:52:01.620Z,202.02
2023-04-23T07:53:01.626Z,200.94
2023-04-23T07:54:01.635Z,201.53
2023-04-23T07:55:01.620Z,200.60
2023-04-23T07:56:01.624Z,202.34
2023-04-23T07:57:01.592Z,202.30
2023-04-23T07:58:01.562Z,199.53
2023-04-23T07:59:01.555Z,197.69
2023-04-23T08:00:01.553Z,196.35
2023-04-23T08:01:01.558Z,197.49
2023-04-23T08:02:01.516Z,197.55
2023-04-23T08:03:01.648Z,197.83
2023-04-23T08:04:01.644Z,198.27
2023-04-23T08:05:01.480Z,197.82
2023-04-23T08:06:01.392Z,196.24
2023-04-23T08:07:01.341Z,196.41
2023-04-23T08:08:01.311Z,196.22
2023-04-23T08:09:01.283Z,195.32
2023-04-23T08:10:01.235Z,197.10
2023-04-23T08:11:01.204Z,195.30
2023-04-23T08:12:01.175Z,193.29
2023-04-23T08:13:01.138Z,192.32
2023-04-23T08:14:01.124Z,191.44
2023-04-23T08:15:01.131Z,194.75
2023-04-23T08:16:01.201Z,187.41
2023-04-23T08:17:01.205Z,189.63
2023-04-23T08:18:01.252Z,188.91
2023-04-23T08:19:05.505Z,190.14
2023-04-23T08:20:02.204Z,190.15
2023-04-23T08:21:01.166Z,188.56
2023-04-23T08:22:01.150Z,186.95
2023-04-23T08:23:01.113Z,184.28
2023-04-23T08:24:01.076Z,188.06
2023-04-23T08:25:01.035Z,184.53
2023-04-23T08:26:00.986Z,184.16
2023-04-23T08:27:00.956Z,183.90
2023-04-23T08:28:00.922Z,184.65
2023-04-23T08:29:00.994Z,186.93
2023-04-23T08:30:00.847Z,186.42
2023-04-23T08:31:00.855Z,184.60
2023-04-23T08:32:00.862Z,181.21
2023-04-23T08:33:00.908Z,184.77
2023-04-23T08:34:00.897Z,183.47
2023-04-23T08:35:00.923Z,185.76
2023-04-23T08:36:00.956Z,183.65
2023-04-23T08:37:00.986Z,183.35
2023-04-23T08:38:01.023Z,183.00
2023-04-23T08:39:01.053Z,183.45
2023-04-23T08:40:01.076Z,182.26
2023-04-23T08:41:01.118Z,181.83
2023-04-23T08:42:01.169Z,183.04
2023-04-23T08:43:01.192Z,183.25
2023-04-23T08:44:01.212Z,183.16
2023-04-23T08:45:01.257Z,183.23
2023-04-23T08:46:01.259Z,182.38
2023-04-23T08:47:01.367Z,183.71
2023-04-23T08:48:02.662Z,182.29
2023-04-23T08:49:01.354Z,182.53
2023-04-23T08:50:01.364Z,180.88
2023-04-23T08:51:01.392Z,180.14
2023-04-23T08:52:01.445Z,179.53
2023-04-23T08:53:01.461Z,182.81
2023-04-23T08:54:01.476Z,180.89
2023-04-23T08:55:01.500Z,181.60
2023-04-23T08:56:01.541Z,181.11
2023-04-23T08:57:01.543Z,179.94
2023-04-23T08:58:01.559Z,177.95
2023-04-23T08:59:01.586Z,177.14
2023-04-23T09:00:01.607Z,176.12
2023-04-23T09:01:01.670Z,178.72
2023-04-23T09:02:01.681Z,178.76
2023-04-23T09:03:01.714Z,178.88
2023-04-23T09:04:01.558Z,178.99
2023-04-23T09:05:01.495Z,177.70
2023-04-23T09:06:01.468Z,175.37
2023-04-23T09:07:01.425Z,177.86
2023-04-23T09:08:01.391Z,176.73
2023-04-23T09:09:01.375Z,170.24
2023-04-23T09:10:01.313Z,173.52
2023-04-23T09:11:01.296Z,175.02
2023-04-23T09:12:01.245Z,173.20
2023-04-23T09:13:01.200Z,174.90
2023-04-23T09:14:01.223Z,173.84
2023-04-23T09:15:01.237Z,173.59
2023-04-23T09:16:01.237Z,174.85
2023-04-23T09:17:01.259Z,174.03
2023-04-23T09:18:01.333Z,175.15
2023-04-23T09:19:01.279Z,176.04
2023-04-23T09:20:01.305Z,175.02
2023-04-23T09:21:01.319Z,173.99
2023-04-23T09:22:01.319Z,172.04
2023-04-23T09:23:01.318Z,169.89
2023-04-23T09:24:01.351Z,165.79
2023-04-23T09:25:01.337Z,167.51
2023-04-23T09:26:01.341Z,168.04
2023-04-23T09:27:01.362Z,168.69
2023-04-23T09:28:01.357Z,167.59
2023-04-23T09:29:01.355Z,167.21
2023-04-23T09:30:01.353Z,167.08
2023-04-23T09:31:01.363Z,163.65
2023-04-23T09:32:01.438Z,158.96
2023-04-23T09:33:01.400Z,151.48
2023-04-23T09:34:01.345Z,149.52
2023-04-23T09:35:01.340Z,153.92
2023-04-23T09:36:01.341Z,150.90
2023-04-23T09:37:01.336Z,151.97
2023-04-23T09:38:01.311Z,154.77
2023-04-23T09:39:01.329Z,151.27
2023-04-23T09:40:01.313Z,153.89
2023-04-23T09:41:01.312Z,156.39
2023-04-23T09:42:01.323Z,150.26
2023-04-23T09:43:01.304Z,150.56
2023-04-23T09:44:01.310Z,153.43
2023-04-23T09:45:01.292Z,152.15
2023-04-23T09:46:01.305Z,152.90
2023-04-23T09:47:01.283Z,149.17
2023-04-23T09:48:01.349Z,150.26
2023-04-23T09:49:01.282Z,152.53
2023-04-23T09:50:01.263Z,150.60
2023-04-23T09:51:01.266Z,151.24
2023-04-23T09:52:01.246Z,147.39
2023-04-23T09:53:01.246Z,147.45
2023-04-23T09:54:01.229Z,148.79
2023-04-23T09:55:01.240Z,151.88
2023-04-23T09:56:01.210Z,155.66
2023-04-23T09:57:01.214Z,147.82
2023-04-23T09:58:01.188Z,152.19
2023-04-23T09:59:01.186Z,148.98
2023-04-23T10:00:13.448Z,140.67
2023-04-23T10:01:02.165Z,140.77
2023-04-23T10:02:01.099Z,141.57
2023-04-23T10:03:01.186Z,136.19
2023-04-23T10:04:01.235Z,133.55
2023-04-23T10:05:14.585Z,138.36
2023-04-23T10:06:02.684Z,140.81
2023-04-23T10:07:17.209Z,134.91
2023-04-23T10:08:01.861Z,139.47
2023-04-23T10:09:00.831Z,139.44
2023-04-23T10:10:00.789Z,138.14
2023-04-23T10:11:10.173Z,134.18
2023-04-23T10:12:01.725Z,128.77
2023-04-23T10:13:00.671Z,128.29
2023-04-23T10:14:00.666Z,129.90
2023-04-23T10:15:00.597Z,130.46
2023-04-23T10:16:10.219Z,134.49
2023-04-23T10:17:01.554Z,130.94
2023-04-23T10:18:00.490Z,131.92
2023-04-23T10:19:00.446Z,133.08
2023-04-23T10:20:00.397Z,133.94
2023-04-23T10:21:00.358Z,126.96
2023-04-23T10:22:17.813Z,130.16
2023-04-23T10:23:01.299Z,130.20
2023-04-23T10:24:00.258Z,130.50
2023-04-23T10:25:00.223Z,130.30
2023-04-23T10:26:00.185Z,121.48
2023-04-23T10:27:01.961Z,122.77
2023-04-23T10:28:00.136Z,127.09
2023-04-23T10:29:00.096Z,117.14
2023-04-23T10:30:00.034Z,116.48
2023-04-23T10:31:00.024Z,120.37
2023-04-23T10:31:59.941Z,113.21
2023-04-23T10:32:59.934Z,119.17
2023-04-23T10:34:00.064Z,122.14
2023-04-23T10:34:59.826Z,116.23
2023-04-23T10:35:59.766Z,116.08
2023-04-23T10:36:59.738Z,109.26
2023-04-23T10:37:59.695Z,101.62
2023-04-23T10:39:00.527Z,104.97
2023-04-23T10:39:59.605Z,111.88
2023-04-23T10:40:59.569Z,106.84
2023-04-23T10:41:59.518Z,114.29
2023-04-23T10:42:59.477Z,118.10
2023-04-23T10:43:59.441Z,112.29
2023-04-23T10:45:07.246Z,111.45
2023-04-23T10:46:00.369Z,111.47
2023-04-23T10:46:59.395Z,106.22
2023-04-23T10:47:59.335Z,108.31
2023-04-23T10:48:59.247Z,105.45
2023-04-23T10:49:59.211Z,106.80
2023-04-23T10:51:14.551Z,105.59
2023-04-23T10:52:18.759Z,110.10
2023-04-23T10:53:00.104Z,111.50
2023-04-23T10:53:59.063Z,106.32
2023-04-23T10:54:59.032Z,109.35
2023-04-23T10:55:58.977Z,112.48
2023-04-23T10:56:58.939Z,117.68
2023-04-23T10:58:01.220Z,109.37
2023-04-23T10:58:58.864Z,109.58
2023-04-23T10:59:59.042Z,110.68
2023-04-23T11:00:58.791Z,111.98
2023-04-23T11:01:58.763Z,110.99
2023-04-23T11:02:58.785Z,115.03
2023-04-23T11:03:58.831Z,118.16
2023-04-23T11:04:58.953Z,119.48
2023-04-23T11:05:58.596Z,120.64
2023-04-23T11:06:58.563Z,117.36
2023-04-23T11:08:03.398Z,113.77
2023-04-23T11:08:59.482Z,113.91
2023-04-23T11:09:58.429Z,114.26
2023-04-23T11:10:58.410Z,115.43
2023-04-23T11:11:58.371Z,116.79
2023-04-23T11:12:58.317Z,111.36
2023-04-23T11:13:59.692Z,110.91
2023-04-23T11:14:58.232Z,115.56
2023-04-23T11:15:58.208Z,117.08
2023-04-23T11:16:58.179Z,119.44
2023-04-23T11:17:58.184Z,122.36
2023-04-23T11:18:58.121Z,118.90
2023-04-23T11:19:58.085Z,116.57
2023-04-23T11:20:58.068Z,109.03
2023-04-23T11:21:58.020Z,108.46
2023-04-23T11:22:57.989Z,116.02
2023-04-23T11:23:57.974Z,113.57
2023-04-23T11:24:57.928Z,110.28
2023-04-23T11:25:57.948Z,107.83
2023-04-23T11:26:57.888Z,107.69
2023-04-23T11:27:57.864Z,111.89
2023-04-23T11:28:57.833Z,110.27
2023-04-23T11:29:59.920Z,112.91
2023-04-23T11:30:57.780Z,105.14
2023-04-23T11:32:03.221Z,108.44
2023-04-23T11:32:58.799Z,108.59
2023-04-23T11:33:57.671Z,109.01
2023-04-23T11:34:57.642Z,111.00
2023-04-23T11:35:57.585Z,113.92
2023-04-23T11:36:57.550Z,115.63
2023-04-23T11:37:57.530Z,114.45
2023-04-23T11:38:57.476Z,108.53
2023-04-23T11:39:57.445Z,113.43
2023-04-23T11:40:57.391Z,112.19
2023-04-23T11:41:57.372Z,111.93
2023-04-23T11:42:57.315Z,112.89
2023-04-23T11:43:57.276Z,117.25
2023-04-23T11:44:57.246Z,118.38
2023-04-23T11:45:57.291Z,119.16
2023-04-23T11:46:58.519Z,120.22
2023-04-23T11:47:57.215Z,109.60
2023-04-23T11:48:57.098Z,108.75
2023-04-23T11:49:57.052Z,110.27
2023-04-23T11:50:57.016Z,115.30
2023-04-23T11:51:56.976Z,107.78
2023-04-23T11:52:56.942Z,111.51
2023-04-23T11:53:56.900Z,112.26
2023-04-23T11:54:56.887Z,111.32
2023-04-23T11:55:56.824Z,92.11
2023-04-23T11:56:56.793Z,102.23
2023-04-23T11:57:56.730Z,104.73
2023-04-23T11:58:56.691Z,94.86
2023-04-23T11:59:56.653Z,101.76
2023-04-23T12:00:56.631Z,92.48
2023-04-23T12:01:56.594Z,99.38
2023-04-23T12:02:56.713Z,104.52
2023-04-23T12:03:56.716Z,102.01
2023-04-23T12:04:56.545Z,97.55
2023-04-23T12:05:56.436Z,98.84
2023-04-23T12:06:56.404Z,102.70
2023-04-23T12:07:56.363Z,105.78
2023-04-23T12:08:56.334Z,106.94
2023-04-23T12:09:56.275Z,104.60
2023-04-23T12:10:56.262Z,92.42
2023-04-23T12:11:56.192Z,91.81
2023-04-23T12:12:56.167Z,91.71
2023-04-23T12:13:56.158Z,89.99
2023-04-23T12:14:56.125Z,85.49
2023-04-23T12:15:56.145Z,89.89
2023-04-23T12:16:56.084Z,83.71
2023-04-23T12:17:56.110Z,67.56
2023-04-23T12:18:56.050Z,69.86
2023-04-23T12:19:56.013Z,64.64
2023-04-23T12:20:55.996Z,62.71
2023-04-23T12:21:55.990Z,59.72
2023-04-23T12:22:55.934Z,64.23
2023-04-23T12:23:55.909Z,63.01
2023-04-23T12:24:55.885Z,68.02
2023-04-23T12:25:55.841Z,63.54
2023-04-23T12:26:55.936Z,59.91
2023-04-23T12:27:55.814Z,61.17
2023-04-23T12:28:55.777Z,56.00